Terminal Aerodrome Forecast
Issued by NWS

Home | Current Version | Previous Version | Text Only | Print | Product List | Glossary On
Versions: 1 2 3 4 5 6 7 8 9 10 11 12 13 14 15 16 17 18 19 20 21 22 23 24 25 26
000
FTUS46 KSEW 251700 RRA
TAFSEA
TAF
KSEA 251735Z 2518/2624 VRB05KT P6SM SCT030 BKN090
      TEMPO 2518/2521 -RA BKN030 OVC080
     FM252100 06008KT P6SM -RA SCT022 OVC045
      TEMPO 2521/2601 4SM -RA BR OVC022
     FM260100 20020G30KT P6SM -RA OVC022
      TEMPO 2604/2608 20030G40KT
     FM261300 22014G22KT P6SM -SHRA BKN015 BKN035=

USA.gov is the U.S. government's official web portal to all federal, state and local government web resources and services.